• Join FlightAware (Why Join?)
  • Login
  • US Flag 
04:16PM EDT


 

Airport Tracker/Info


-or-


 

Live Flight TrackerFlight Track Log ✈ AFL150 ✈ 01-Dec-2013 ✈ UUEE / SVO - MUHA / HAV

Flight Track Log - Related Links

Times and Time Zones

All times are in EST time to prevent confusion due to time zone crossing. See the AFL150 flight status page for this flight to view local times or setup timezone preferences in your user account.

Time Position Orientation Groundspeed Altitude Reporting Facility
EST Latitude Longitude Course Direction KTS MPH feet Rate Location/Type
04:54AM 56.0738 37.2312 318° Northwest  Level FlightAware Approximate
04:55AM 56.1648 37.0848 318° Northwest  Level FlightAware Approximate
04:56AM 56.2557 36.9376 318° Northwest  Level FlightAware Approximate
04:57AM 56.3463 36.7897 318° Northwest  Level FlightAware Approximate
04:58AM 56.4368 36.6412 318° Northwest  Level FlightAware Approximate
04:59AM 56.5271 36.4919 318° Northwest  Level FlightAware Approximate
05:00AM 56.6172 36.3419 318° Northwest  Level FlightAware Approximate
05:01AM 56.7071 36.1912 317° Northwest  Level FlightAware Approximate
05:02AM 56.7968 36.0398 317° Northwest  Level FlightAware Approximate
05:03AM 56.8864 35.8877 317° Northwest  Level FlightAware Approximate
05:04AM 56.9757 35.7348 317° Northwest  Level FlightAware Approximate
05:05AM 57.0649 35.5812 317° Northwest  Level FlightAware Approximate
05:06AM 57.1539 35.4268 317° Northwest  Level FlightAware Approximate
05:07AM 57.2427 35.2717 317° Northwest  Level FlightAware Approximate
05:08AM 57.3313 35.1159 317° Northwest  Level FlightAware Approximate
05:09AM 57.4198 34.9593 316° Northwest  Level FlightAware Approximate
05:10AM 57.5080 34.8019 316° Northwest  Level FlightAware Approximate
05:11AM 57.5960 34.6438 316° Northwest  Level FlightAware Approximate
05:12AM 57.6172 34.6006 314° West  Level FlightAware Approximate
05:13AM 57.7015 34.4352 314° West  Level FlightAware Approximate
05:14AM 57.7856 34.2689 314° West  Level FlightAware Approximate
05:15AM 57.8695 34.1019 313° West  Level FlightAware Approximate
05:16AM 57.9531 33.9341 313° West  Level FlightAware Approximate
05:17AM 58.0366 33.7655 313° West  Level FlightAware Approximate
05:18AM 58.1198 33.5961 313° West  Level FlightAware Approximate
05:19AM 58.2028 33.4260 313° West  Level FlightAware Approximate
05:20AM 58.2855 33.2550 313° West  Level FlightAware Approximate
05:21AM 58.3681 33.0833 313° West  Level FlightAware Approximate
05:22AM 58.4504 32.9107 312° West  Level FlightAware Approximate
05:23AM 58.5325 32.7373 312° West  Level FlightAware Approximate
05:24AM 58.6143 32.5631 312° West  Level FlightAware Approximate
05:25AM 58.6959 32.3881 312° West  Level FlightAware Approximate
05:26AM 58.7773 32.2123 312° West  Level FlightAware Approximate
05:27AM 58.8584 32.0357 312° West  Level FlightAware Approximate
05:28AM 58.9393 31.8582 311° West  Level FlightAware Approximate
05:29AM 59.0199 31.6799 311° West  Level FlightAware Approximate
05:30AM 59.1003 31.5008 311° West  Level FlightAware Approximate
05:31AM 59.1804 31.3208 311° West  Level FlightAware Approximate
05:32AM 59.2603 31.1400 311° West  Level FlightAware Approximate
05:33AM 59.3400 30.9583 311° West  Level FlightAware Approximate
05:34AM 59.4194 30.7758 311° West  Level FlightAware Approximate
05:35AM 59.4985 30.5924 310° West  Level FlightAware Approximate
05:36AM 59.5774 30.4081 310° West  Level FlightAware Approximate
05:37AM 59.6560 30.2230 310° West  Level FlightAware Approximate
05:38AM 59.7343 30.0371 310° West  Level FlightAware Approximate
05:39AM 59.8124 29.8502 310° West  Level FlightAware Approximate
05:40AM 59.8902 29.6625 310° West  Level FlightAware Approximate
05:41AM 59.9678 29.4739 309° West  Level FlightAware Approximate
05:42AM 60.0451 29.2844 309° West  Level FlightAware Approximate
05:43AM 60.1221 29.0940 309° West  Level FlightAware Approximate
05:44AM 60.1988 28.9027 309° West  Level FlightAware Approximate
05:45AM 60.2753 28.7106 309° West  Level FlightAware Approximate
05:46AM 60.3515 28.5175 309° West  Level FlightAware Approximate
05:47AM 60.4273 28.3235 308° West  Level FlightAware Approximate
05:48AM 60.5030 28.1287 308° West  Level FlightAware Approximate
05:49AM 60.5783 27.9329 308° West  Level FlightAware Approximate
05:50AM 60.6533 27.7362 308° West  Level FlightAware Approximate
05:51AM 60.7281 27.5386 308° West  Level FlightAware Approximate
05:52AM 60.8026 27.3401 308° West  Level FlightAware Approximate
05:53AM 60.8767 27.1406 307° West  Level FlightAware Approximate
05:54AM 60.9506 26.9402 307° West  Level FlightAware Approximate
05:55AM 61.0242 26.7389 307° West  Level FlightAware Approximate
05:56AM 61.0974 26.5367 307° West  Level FlightAware Approximate
05:57AM 61.1707 26.3339 307° West  Level FlightAware Approximate
05:58AM 61.2437 26.1304 307° West  Level FlightAware Approximate
05:59AM 61.3165 25.9259 307° West  Level FlightAware Approximate
06:00AM 61.3889 25.7204 306° West  Level FlightAware Approximate
06:01AM 61.4610 25.5140 306° West  Level FlightAware Approximate
06:02AM 61.5328 25.3067 306° West  Level FlightAware Approximate
06:03AM 61.6043 25.0984 306° West  Level FlightAware Approximate
06:04AM 61.6754 24.8891 306° West  Level FlightAware Approximate
06:05AM 61.7463 24.6789 306° West  Level FlightAware Approximate
06:06AM 61.8168 24.4677 305° West  Level FlightAware Approximate
06:07AM 61.8870 24.2555 305° West  Level FlightAware Approximate
06:08AM 61.9569 24.0424 305° West  Level FlightAware Approximate
06:09AM 62.0264 23.8283 305° West  Level FlightAware Approximate
06:10AM 62.0956 23.6131 305° West  Level FlightAware Approximate
06:11AM 62.1645 23.3971 304° West  Level FlightAware Approximate
06:12AM 62.2330 23.1800 304° West  Level FlightAware Approximate
06:13AM 62.3012 22.9620 304° West  Level FlightAware Approximate
06:14AM 62.3691 22.7429 304° West  Level FlightAware Approximate
06:15AM 62.4366 22.5229 304° West  Level FlightAware Approximate
06:16AM 62.5037 22.3019 303° West  Level FlightAware Approximate
06:17AM 62.5705 22.0799 303° West  Level FlightAware Approximate
06:18AM 62.6370 21.8569 303° West  Level FlightAware Approximate
06:19AM 62.7030 21.6327 303° West  Level FlightAware Approximate
06:20AM 62.7684 21.4073 302° West  Level FlightAware Approximate
06:21AM 62.8335 21.1809 302° West  Level FlightAware Approximate
06:22AM 62.8983 20.9535 302° West  Level FlightAware Approximate
06:23AM 62.9626 20.7251 302° West  Level FlightAware Approximate
06:24AM 63.0266 20.4957 302° West  Level FlightAware Approximate
06:25AM 63.0902 20.2652 301° West  Level FlightAware Approximate
06:26AM 63.1534 20.0338 301° West  Level FlightAware Approximate
06:27AM 63.2163 19.8014 301° West  Level FlightAware Approximate
06:28AM 63.2788 19.5679 301° West  Level FlightAware Approximate
06:29AM 63.3409 19.3335 301° West  Level FlightAware Approximate
06:30AM 63.4026 19.0980 300° West  Level FlightAware Approximate
06:31AM 63.4639 18.8615 300° West  Level FlightAware Approximate
06:32AM 63.5248 18.6240 300° West  Level FlightAware Approximate
06:33AM 63.5853 18.3855 300° West  Level FlightAware Approximate
06:34AM 63.6455 18.1460 300° West  Level FlightAware Approximate
06:35AM 63.7052 17.9055 299° West  Level FlightAware Approximate
06:36AM 63.7645 17.6639 299° West  Level FlightAware Approximate
06:37AM 63.8234 17.4214 299° West  Level FlightAware Approximate
06:38AM 63.8820 17.1778 299° West  Level FlightAware Approximate
06:39AM 63.9401 16.9332 298° West  Level FlightAware Approximate
06:40AM 63.9978 16.6876 298° West  Level FlightAware Approximate
06:41AM 64.0551 16.4410 298° West  Level FlightAware Approximate
06:42AM 64.1119 16.1934 298° West  Level FlightAware Approximate
06:43AM 64.1683 15.9447 298° West  Level FlightAware Approximate
06:44AM 64.2243 15.6951 297° West  Level FlightAware Approximate
06:45AM 64.2799 15.4444 297° West  Level FlightAware Approximate
06:46AM 64.3351 15.1927 297° West  Level FlightAware Approximate
06:47AM 64.3898 14.9401 297° West  Level FlightAware Approximate
06:48AM 64.4441 14.6864 296° West  Level FlightAware Approximate
06:49AM 64.4979 14.4317 296° West  Level FlightAware Approximate
06:50AM 64.5513 14.1761 296° West  Level FlightAware Approximate
06:51AM 64.6043 13.9194 296° West  Level FlightAware Approximate
06:52AM 64.6568 13.6617 296° West  Level FlightAware Approximate
06:53AM 64.7088 13.4030 295° West  Level FlightAware Approximate
06:54AM 64.7605 13.1434 295° West  Level FlightAware Approximate
06:55AM 64.8116 12.8827 295° West  Level FlightAware Approximate
06:56AM 64.8623 12.6211 295° West  Level FlightAware Approximate
06:57AM 64.9125 12.3585 294° West  Level FlightAware Approximate
06:58AM 64.9623 12.0949 294° West  Level FlightAware Approximate
06:59AM 65.0116 11.8303 294° West  Level FlightAware Approximate
07:00AM 65.0604 11.5647 294° West  Level FlightAware Approximate
07:01AM 65.1088 11.2982 293° West  Level FlightAware Approximate
07:02AM 65.1567 11.0307 293° West  Level FlightAware Approximate
07:03AM 65.2041 10.7622 293° West  Level FlightAware Approximate
07:04AM 65.2510 10.4928 293° West  Level FlightAware Approximate
07:05AM 65.2974 10.2225 292° West  Level FlightAware Approximate
07:06AM 65.3434 9.9511 292° West  Level FlightAware Approximate
07:07AM 65.3889 9.6789 292° West  Level FlightAware Approximate
07:08AM 65.4339 9.4057 292° West  Level FlightAware Approximate
07:09AM 65.4783 9.1315 291° West  Level FlightAware Approximate
07:10AM 65.5223 8.8565 291° West  Level FlightAware Approximate
07:11AM 65.5658 8.5805 291° West  Level FlightAware Approximate
07:12AM 65.6088 8.3036 291° West  Level FlightAware Approximate
07:13AM 65.6513 8.0258 290° West  Level FlightAware Approximate
07:14AM 65.6932 7.7470 290° West  Level FlightAware Approximate
07:15AM 65.7347 7.4674 290° West  Level FlightAware Approximate
07:16AM 65.7756 7.1869 290° West  Level FlightAware Approximate
07:17AM 65.8161 6.9055 289° West  Level FlightAware Approximate
07:18AM 65.8560 6.6232 289° West  Level FlightAware Approximate
07:19AM 65.8954 6.3400 289° West  Level FlightAware Approximate
07:20AM 65.9342 6.0560 289° West  Level FlightAware Approximate
07:21AM 65.9726 5.7711 288° West  Level FlightAware Approximate
07:22AM 66.0104 5.4854 288° West  Level FlightAware Approximate
07:23AM 66.0477 5.1988 288° West  Level FlightAware Approximate
07:24AM 66.0844 4.9114 288° West  Level FlightAware Approximate
07:25AM 66.1206 4.6231 287° West  Level FlightAware Approximate
07:26AM 66.1563 4.3341 287° West  Level FlightAware Approximate
07:27AM 66.1915 4.0442 287° West  Level FlightAware Approximate
07:28AM 66.2260 3.7536 287° West  Level FlightAware Approximate
07:29AM 66.2601 3.4621 286° West  Level FlightAware Approximate
07:30AM 66.2936 3.1699 286° West  Level FlightAware Approximate
07:31AM 66.3265 2.8768 286° West  Level FlightAware Approximate
07:32AM 66.3589 2.5831 286° West  Level FlightAware Approximate
07:33AM 66.3908 2.2885 285° West  Level FlightAware Approximate
07:34AM 66.4221 1.9933 285° West  Level FlightAware Approximate
07:35AM 66.4528 1.6973 285° West  Level FlightAware Approximate
07:36AM 66.4829 1.4005 284° West  Level FlightAware Approximate
07:37AM 66.5126 1.1031 284° West  Level FlightAware Approximate
07:38AM 66.5416 0.8049 284° West  Level FlightAware Approximate
07:39AM 66.5701 0.5061 284° West  Level FlightAware Approximate
07:40AM 66.5980 0.2066 283° West  Level FlightAware Approximate
07:41AM 66.6253 -0.0936 283° West  Level FlightAware Approximate
07:42AM 66.6520 -0.3944 283° West  Level FlightAware Approximate
07:43AM 66.6782 -0.6959 283° West  Level FlightAware Approximate
07:44AM 66.7038 -0.9980 282° West  Level FlightAware Approximate
07:45AM 66.7288 -1.3007 282° West  Level FlightAware Approximate
07:46AM 66.7533 -1.6041 282° West  Level FlightAware Approximate
07:47AM 66.7771 -1.9080 281° West  Level FlightAware Approximate
07:48AM 66.8004 -2.2125 281° West  Level FlightAware Approximate
07:49AM 66.8231 -2.5176 281° West  Level FlightAware Approximate
07:50AM 66.8451 -2.8233 281° West  Level FlightAware Approximate
07:51AM 66.8666 -3.1295 280° West  Level FlightAware Approximate
07:52AM 66.8876 -3.4362 280° West  Level FlightAware Approximate
07:53AM 66.9079 -3.7434 280° West  Level FlightAware Approximate
07:54AM 66.9276 -4.0512 279° West  Level FlightAware Approximate
07:55AM 66.9467 -4.3594 279° West  Level FlightAware Approximate
07:56AM 66.9652 -4.6681 279° West  Level FlightAware Approximate
07:57AM 66.9831 -4.9773 279° West  Level FlightAware Approximate
07:58AM 67.0005 -5.2869 278° West  Level FlightAware Approximate
07:59AM 67.0172 -5.5970 278° West  Level FlightAware Approximate
08:00AM 67.0333 -5.9074 278° West  Level FlightAware Approximate
08:01AM 67.0488 -6.2183 277° West  Level FlightAware Approximate
08:02AM 67.0637 -6.5296 277° West  Level FlightAware Approximate
08:03AM 67.0780 -6.8412 277° West  Level FlightAware Approximate
08:04AM 67.0917 -7.1532 277° West  Level FlightAware Approximate
08:05AM 67.1048 -7.4656 276° West  Level FlightAware Approximate
08:06AM 67.1172 -7.7783 276° West  Level FlightAware Approximate
08:07AM 67.1291 -8.0912 276° West  Level FlightAware Approximate
08:08AM 67.1403 -8.4045 275° West  Level FlightAware Approximate
08:09AM 67.1510 -8.7181 275° West  Level FlightAware Approximate
08:10AM 67.1610 -9.0320 275° West  Level FlightAware Approximate
08:11AM 67.1704 -9.3461 275° West  Level FlightAware Approximate
08:12AM 67.1792 -9.6604 274° West  Level FlightAware Approximate
08:13AM 67.1873 -9.9749 274° West  Level FlightAware Approximate
08:14AM 67.1949 -10.2897 274° West  Level FlightAware Approximate
08:15AM 67.2018 -10.6047 273° West  Level FlightAware Approximate
08:16AM 67.2081 -10.9198 273° West  Level FlightAware Approximate
08:17AM 67.2138 -11.2351 273° West  Level FlightAware Approximate
08:18AM 67.2189 -11.5505 273° West  Level FlightAware Approximate
08:19AM 67.2233 -11.8660 272° West  Level FlightAware Approximate
08:20AM 67.2271 -12.1817 272° West  Level FlightAware Approximate
08:21AM 67.2304 -12.4974 272° West  Level FlightAware Approximate
08:22AM 67.2329 -12.8132 271° West  Level FlightAware Approximate
08:23AM 67.2349 -13.1291 271° West  Level FlightAware Approximate
08:24AM 67.2363 -13.4451 271° West  Level FlightAware Approximate
08:25AM 67.2370 -13.7610 270° West  Level FlightAware Approximate
08:26AM 67.2371 -14.0770 270° West  Level FlightAware Approximate
08:27AM 67.2366 -14.3929 270° West  Level FlightAware Approximate
08:28AM 67.2354 -14.7089 270° West  Level FlightAware Approximate
08:29AM 67.2337 -15.0248 269° West  Level FlightAware Approximate
08:30AM 67.2313 -15.3406 269° West  Level FlightAware Approximate
08:31AM 67.2283 -15.6564 269° West  Level FlightAware Approximate
08:32AM 67.2246 -15.9721 268° West  Level FlightAware Approximate
08:33AM 67.2204 -16.2876 268° West  Level FlightAware Approximate
08:34AM 67.2155 -16.6031 268° West  Level FlightAware Approximate
08:35AM 67.2100 -16.9184 268° West  Level FlightAware Approximate
08:36AM 67.2038 -17.2336 267° West  Level FlightAware Approximate
08:37AM 67.1971 -17.5486 267° West  Level FlightAware Approximate
08:38AM 67.1897 -17.8634 267° West  Level FlightAware Approximate
08:39AM 67.1817 -18.1780 266° West  Level FlightAware Approximate
08:40AM 67.1731 -18.4924 266° West  Level FlightAware Approximate
08:41AM 67.1638 -18.8066 266° West  Level FlightAware Approximate
08:42AM 67.1540 -19.1205 266° West  Level FlightAware Approximate
08:43AM 67.1435 -19.4342 265° West  Level FlightAware Approximate
08:44AM 67.1324 -19.7475 265° West  Level FlightAware Approximate
08:45AM 67.1207 -20.0606 265° West  Level FlightAware Approximate
08:46AM 67.1084 -20.3734 264° West  Level FlightAware Approximate
08:47AM 67.0955 -20.6858 264° West  Level FlightAware Approximate
08:48AM 67.0820 -20.9979 264° West  Level FlightAware Approximate
08:49AM 67.0678 -21.3097 264° West  Level FlightAware Approximate
08:50AM 67.0531 -21.6210 263° West  Level FlightAware Approximate
08:51AM 67.0377 -21.9320 263° West  Level FlightAware Approximate
08:52AM 67.0218 -22.2426 263° West  Level FlightAware Approximate
08:53AM 67.0052 -22.5528 262° West  Level FlightAware Approximate
08:54AM 66.9880 -22.8625 262° West  Level FlightAware Approximate
08:55AM 66.9703 -23.1718 262° West  Level FlightAware Approximate
08:56AM 66.9519 -23.4806 262° West  Level FlightAware Approximate
08:57AM 66.9329 -23.7890 261° West  Level FlightAware Approximate
08:58AM 66.9134 -24.0969 261° West  Level FlightAware Approximate
08:59AM 66.8932 -24.4043 261° West  Level FlightAware Approximate
09:00AM 66.8725 -24.7111 260° West  Level FlightAware Approximate
09:01AM 66.8511 -25.0175 260° West  Level FlightAware Approximate
09:02AM 66.8292 -25.3233 260° West  Level FlightAware Approximate
09:03AM 66.8066 -25.6285 260° West  Level FlightAware Approximate
09:04AM 66.7835 -25.9332 259° West  Level FlightAware Approximate
09:05AM 66.7598 -26.2373 259° West  Level FlightAware Approximate
09:06AM 66.7355 -26.5408 259° West  Level FlightAware Approximate
09:07AM 66.7107 -26.8437 258° West  Level FlightAware Approximate
09:08AM 66.6852 -27.1459 258° West  Level FlightAware Approximate
09:09AM 66.6592 -27.4476 258° West  Level FlightAware Approximate
09:10AM 66.6326 -27.7486 258° West  Level FlightAware Approximate
09:11AM 66.6054 -28.0490 257° West  Level FlightAware Approximate
09:12AM 66.5777 -28.3486 257° West  Level FlightAware Approximate
09:13AM 66.5493 -28.6477 257° West  Level FlightAware Approximate
09:14AM 66.5205 -28.9460 256° West  Level FlightAware Approximate
09:15AM 66.4910 -29.2436 256° West  Level FlightAware Approximate
09:16AM 66.4610 -29.5405 256° West  Level FlightAware Approximate
09:17AM 66.4304 -29.8367 256° West  Level FlightAware Approximate
09:18AM 66.3993 -30.1322 255° West  Level FlightAware Approximate
09:19AM 66.3676 -30.4269 255° West  Level FlightAware Approximate
09:20AM 66.3353 -30.7209 255° West  Level FlightAware Approximate
09:21AM 66.3025 -31.0141 255° West  Level FlightAware Approximate
09:22AM 66.2691 -31.3066 254° West  Level FlightAware Approximate
09:23AM 66.2352 -31.5983 254° West  Level FlightAware Approximate
09:24AM 66.2008 -31.8891 254° West  Level FlightAware Approximate
09:25AM 66.1658 -32.1792 253° West  Level FlightAware Approximate
09:26AM 66.1302 -32.4685 253° West  Level FlightAware Approximate
09:27AM 66.0942 -32.7570 253° West  Level FlightAware Approximate
09:28AM 66.0576 -33.0446 253° West  Level FlightAware Approximate
09:29AM 66.0204 -33.3314 252° West  Level FlightAware Approximate
09:30AM 65.9827 -33.6173 252° West  Level FlightAware Approximate
09:31AM 65.9445 -33.9025 252° West  Level FlightAware Approximate
09:32AM 65.9058 -34.1867 252° West  Level FlightAware Approximate
09:33AM 65.8665 -34.4701 251° West  Level FlightAware Approximate
09:34AM 65.8268 -34.7526 251° West  Level FlightAware Approximate
09:35AM 65.7865 -35.0342 251° West  Level FlightAware Approximate
09:36AM 65.7456 -35.3150 251° West  Level FlightAware Approximate
09:37AM 65.7043 -35.5949 250° West  Level FlightAware Approximate
09:38AM 65.6625 -35.8738 250° West  Level FlightAware Approximate
09:39AM 65.6201 -36.1519 250° West  Level FlightAware Approximate
09:40AM 65.5773 -36.4290 250° West  Level FlightAware Approximate
09:41AM 65.5339 -36.7053 249° West  Level FlightAware Approximate
09:42AM 65.4901 -36.9806 249° West  Level FlightAware Approximate
09:43AM 65.4457 -37.2550 249° West  Level FlightAware Approximate
09:44AM 65.4009 -37.5284 249° West  Level FlightAware Approximate
09:45AM 65.3555 -37.8009 248° West  Level FlightAware Approximate
09:46AM 65.3097 -38.0725 248° West  Level FlightAware Approximate
09:47AM 65.2634 -38.3431 248° West  Level FlightAware Approximate
09:48AM 65.2166 -38.6128 248° West  Level FlightAware Approximate
09:49AM 65.1693 -38.8815 247° West  Level FlightAware Approximate
09:50AM 65.1215 -39.1492 247° West  Level FlightAware Approximate
09:51AM 65.0733 -39.4160 247° West  Level FlightAware Approximate
09:52AM 65.0246 -39.6818 247° West  Level FlightAware Approximate
09:53AM 64.9754 -39.9467 246° West  Level FlightAware Approximate
09:54AM 64.9258 -40.2105 246° West  Level FlightAware Approximate
09:55AM 64.8756 -40.4734 246° West  Level FlightAware Approximate
09:56AM 64.8251 -40.7353 246° West  Level FlightAware Approximate
09:57AM 64.7740 -40.9962 245° Southwest  Level FlightAware Approximate
09:58AM 64.7226 -41.2561 245° Southwest  Level FlightAware Approximate
09:59AM 64.6706 -41.5150 245° Southwest  Level FlightAware Approximate
10:00AM 64.6182 -41.7730 245° Southwest  Level FlightAware Approximate
10:01AM 64.5654 -42.0299 245° Southwest  Level FlightAware Approximate
10:02AM 64.5121 -42.2859 244° Southwest  Level FlightAware Approximate
10:03AM 64.4584 -42.5408 244° Southwest  Level FlightAware Approximate
10:04AM 64.4042 -42.7948 244° Southwest  Level FlightAware Approximate
10:05AM 64.3496 -43.0477 244° Southwest  Level FlightAware Approximate
10:06AM 64.2946 -43.2996 243° Southwest  Level FlightAware Approximate
10:07AM 64.2391 -43.5505 243° Southwest  Level FlightAware Approximate
10:08AM 64.1832 -43.8004 243° Southwest  Level FlightAware Approximate
10:09AM 64.1269 -44.0493 243° Southwest  Level FlightAware Approximate
10:10AM 64.0701 -44.2972 242° Southwest  Level FlightAware Approximate
10:11AM 64.0129 -44.5441 242° Southwest  Level FlightAware Approximate
10:12AM 63.9554 -44.7900 242° Southwest  Level FlightAware Approximate
10:13AM 63.8973 -45.0346 242° Southwest  Level FlightAware Approximate
10:14AM 63.8388 -45.2783 241° Southwest  Level FlightAware Approximate
10:15AM 63.7798 -45.5210 241° Southwest  Level FlightAware Approximate
10:16AM 63.7205 -45.7626 241° Southwest  Level FlightAware Approximate
10:17AM 63.6607 -46.0032 241° Southwest  Level FlightAware Approximate
10:18AM 63.6005 -46.2429 241° Southwest  Level FlightAware Approximate
10:19AM 63.5400 -46.4814 240° Southwest  Level FlightAware Approximate
10:20AM 63.4790 -46.7190 240° Southwest  Level FlightAware Approximate
10:21AM 63.4177 -46.9556 240° Southwest  Level FlightAware Approximate
10:22AM 63.3560 -47.1912 240° Southwest  Level FlightAware Approximate
10:23AM 63.2938 -47.4257 240° Southwest  Level FlightAware Approximate
10:24AM 63.2313 -47.6592 239° Southwest  Level FlightAware Approximate
10:25AM 63.1685 -47.8918 239° Southwest  Level FlightAware Approximate
10:26AM 63.1052 -48.1233 239° Southwest  Level FlightAware Approximate
10:27AM 63.0416 -48.3538 239° Southwest  Level FlightAware Approximate
10:28AM 62.9776 -48.5833 239° Southwest  Level FlightAware Approximate
10:29AM 62.9132 -48.8117 238° Southwest  Level FlightAware Approximate
10:30AM 62.8484 -49.0392 238° Southwest  Level FlightAware Approximate
10:31AM 62.7833 -49.2657 238° Southwest  Level FlightAware Approximate
10:32AM 62.7178 -49.4912 238° Southwest  Level FlightAware Approximate
10:33AM 62.6520 -49.7157 238° Southwest  Level FlightAware Approximate
10:34AM 62.5858 -49.9392 237° Southwest  Level FlightAware Approximate
10:35AM 62.5192 -50.1616 237° Southwest  Level FlightAware Approximate
10:36AM 62.4523 -50.3831 237° Southwest  Level FlightAware Approximate
10:37AM 62.3851 -50.6036 237° Southwest  Level FlightAware Approximate
10:38AM 62.3175 -50.8231 237° Southwest  Level FlightAware Approximate
10:39AM 62.2495 -51.0417 236° Southwest  Level FlightAware Approximate
10:40AM 62.1813 -51.2592 236° Southwest  Level FlightAware Approximate
10:41AM 62.1127 -51.4757 236° Southwest  Level FlightAware Approximate
10:42AM 62.0437 -51.6913 236° Southwest  Level FlightAware Approximate
10:43AM 61.9744 -51.9059 236° Southwest  Level FlightAware Approximate
10:44AM 61.9048 -52.1195 235° Southwest  Level FlightAware Approximate
10:45AM 61.8348 -52.3322 235° Southwest  Level FlightAware Approximate
10:46AM 61.7645 -52.5439 235° Southwest  Level FlightAware Approximate
10:47AM 61.6939 -52.7546 235° Southwest  Level FlightAware Approximate
10:48AM 61.6230 -52.9643 235° Southwest  Level FlightAware Approximate
10:49AM 61.5517 -53.1731 234° Southwest  Level FlightAware Approximate
10:50AM 61.4802 -53.3810 234° Southwest  Level FlightAware Approximate
10:51AM 61.4083 -53.5878 234° Southwest  Level FlightAware Approximate
10:52AM 61.3361 -53.7937 234° Southwest  Level FlightAware Approximate
10:53AM 61.2636 -53.9987 234° Southwest  Level FlightAware Approximate
10:54AM 61.1908 -54.2027 234° Southwest  Level FlightAware Approximate
10:55AM 61.1177 -54.4058 233° Southwest  Level FlightAware Approximate
10:56AM 61.0442 -54.6079 233° Southwest  Level FlightAware Approximate
10:57AM 60.9705 -54.8092 233° Southwest  Level FlightAware Approximate
10:58AM 60.8966 -55.0096 234° Southwest  Level FlightAware Approximate
10:59AM 60.8238 -55.2114 234° Southwest  Level FlightAware Approximate
11:00AM 60.7508 -55.4123 233° Southwest  Level FlightAware Approximate
11:01AM 60.6775 -55.6123 233° Southwest  Level FlightAware Approximate
11:02AM 60.6039 -55.8114 233° Southwest  Level FlightAware Approximate
11:03AM 60.5288 -56.0078 232° Southwest  Level FlightAware Approximate
11:04AM 60.4531 -56.2025 232° Southwest  Level FlightAware Approximate
11:05AM 60.3770 -56.3964 232° Southwest  Level FlightAware Approximate
11:06AM 60.3007 -56.5894 231° Southwest  Level FlightAware Approximate
11:07AM 60.2241 -56.7814 231° Southwest  Level FlightAware Approximate
11:08AM 60.1472 -56.9726 231° Southwest  Level FlightAware Approximate
11:09AM 60.0700 -57.1628 231° Southwest  Level FlightAware Approximate
11:10AM 59.9925 -57.3522 231° Southwest  Level FlightAware Approximate
11:11AM 59.9148 -57.5407 231° Southwest  Level FlightAware Approximate
11:12AM 59.8368 -57.7283 230° Southwest  Level FlightAware Approximate
11:13AM 59.7586 -57.9150 230° Southwest  Level FlightAware Approximate
11:14AM 59.6801 -58.1008 230° Southwest  Level FlightAware Approximate
11:15AM 59.6013 -58.2858 230° Southwest  Level FlightAware Approximate
11:16AM 59.5223 -58.4700 230° Southwest  Level FlightAware Approximate
11:17AM 59.4431 -58.6533 230° Southwest  Level FlightAware Approximate
11:18AM 59.3636 -58.8358 230° Southwest  Level FlightAware Approximate
11:19AM 59.2838 -59.0174 229° Southwest  Level FlightAware Approximate
11:20AM 59.2038 -59.1982 229° Southwest  Level FlightAware Approximate
11:21AM 59.1236 -59.3781 229° Southwest  Level FlightAware Approximate
11:22AM 59.0431 -59.5572 229° Southwest  Level FlightAware Approximate
11:23AM 58.9623 -59.7354 229° Southwest  Level FlightAware Approximate
11:24AM 58.8814 -59.9128 229° Southwest  Level FlightAware Approximate
11:25AM 58.8001 -60.0894 228° Southwest  Level FlightAware Approximate
11:26AM 58.7187 -60.2652 228° Southwest  Level FlightAware Approximate
11:27AM 58.6370 -60.4401 228° Southwest  Level FlightAware Approximate
11:28AM 58.5548 -60.6139 228° Southwest  Level FlightAware Approximate
11:29AM 58.4724 -60.7867 228° Southwest  Level FlightAware Approximate
11:30AM 58.3897 -60.9588 228° Southwest  Level FlightAware Approximate
11:31AM 58.3068 -61.1300 227° Southwest  Level FlightAware Approximate
11:32AM 58.2237 -61.3004 227° Southwest  Level FlightAware Approximate
11:33AM 58.1403 -61.4701 227° Southwest  Level FlightAware Approximate
11:34AM 58.0568 -61.6389 227° Southwest  Level FlightAware Approximate
11:35AM 57.9730 -61.8070 227° Southwest  Level FlightAware Approximate
11:36AM 57.8890 -61.9742 227° Southwest  Level FlightAware Approximate
11:37AM 57.8047 -62.1407 227° Southwest  Level FlightAware Approximate
11:38AM 57.7206 -62.3070 227° Southwest  Level FlightAware Approximate
11:38AM 63.4833 -55.5667 210° Southwest 460 529 36,000  Level Gander Center
11:39AM 57.6363 -62.4726 226° Southwest  Level FlightAware Approximate
11:39AM 63.4333 -55.8000 244° Southwest 460 529 57,000  Level Gander Center
11:40AM 57.5518 -62.6374 226° Southwest  Level FlightAware Approximate
11:40AM 63.3667 -56.0333 238° Southwest 460 529 36,000  Level Gander Center
11:41AM 57.4670 -62.8014 226° Southwest  Level FlightAware Approximate
11:41AM 63.2833 -56.2667 232° Southwest 460 529 36,000  Level Gander Center
11:42AM 57.3820 -62.9647 226° Southwest  Level FlightAware Approximate
11:42AM 63.2167 -56.5000 238° Southwest 470 541 36,000  Level Gander Center
11:43AM 57.2775 -63.0784 210° Southwest  Level Estimated
11:43AM 63.1333 -56.7333 232° Southwest 470 541 36,000  Level Gander Center
11:44AM 63.0500 -57.0000 235° Southwest 470 541 36,000  Level Gander Center
11:45AM 62.9667 -57.2333 232° Southwest 470 541 36,000  Level Gander Center
11:47AM 62.8500 -57.6500 239° Southwest 470 541 36,000  Level Gander Center
11:49AM 62.7404 -57.9670 233° Southwest  Level FlightAware Approximate
11:54AM 62.2667 -59.2833 231° Southwest 320 368 36,000  Level Gander Center
11:55AM 62.1833 -59.5333 235° Southwest 460 529 36,000  Level Gander Center
11:56AM 62.2368 -59.3694 233° Southwest  Level FlightAware Approximate
11:56AM 62.1000 -59.7167 226° Southwest 470 541 36,000  Level Gander Center
11:57AM 62.1637 -59.5659 232° Southwest  Level FlightAware Approximate
11:57AM 62.0167 -59.9333 231° Southwest 470 541 36,000  Level Gander Center
11:58AM 62.0903 -59.7615 231° Southwest  Level FlightAware Approximate
11:58AM 61.9333 -60.1833 235° Southwest 480 552 36,000  Level Gander Center
11:59AM 62.0167 -59.9561 231° Southwest  Level FlightAware Approximate
11:59AM 61.8667 -60.4000 237° Southwest 470 541 36,000  Level Gander Center
12:00PM 61.8000 -60.6167 237° Southwest 460 529 36,000  Level Gander Center
12:01PM 61.7333 -60.8333 237° Southwest 460 529 36,000  Level Gander Center
12:02PM 61.6667 -61.0000 230° Southwest 460 529 36,000  Level Gander Center
12:03PM 61.5833 -61.2833 238° Southwest 460 529 36,000  Level Gander Center
12:04PM 61.5167 -61.4500 230° Southwest 460 529 36,000  Level Gander Center
12:05PM 61.4500 -61.6667 237° Southwest 460 529 36,000  Level Gander Center
12:06PM 61.3500 -61.9000 228° Southwest 460 529 36,000  Level Gander Center
12:07PM 61.3000 -62.0833 240° Southwest 460 529 36,000  Level Gander Center
12:08PM 61.2167 -62.3167 234° Southwest 460 529 36,000  Level Gander Center
12:09PM 61.1500 -62.5167 235° Southwest 460 529 36,000  Level Gander Center
12:10PM 61.0500 -62.7167 224° Southwest 460 529 36,000  Level Gander Center
12:11PM 60.9667 -62.9667 236° Southwest 450 518 36,000  Level Gander Center
12:12PM 60.9000 -63.1667 236° Southwest 450 518 36,000  Level Gander Center
12:13PM 60.8167 -63.3667 230° Southwest 450 518 36,000  Level Gander Center
12:14PM 60.7500 -63.5667 236° Southwest 460 529 36,000  Level Gander Center
12:15PM 60.6667 -63.7500 227° Southwest 460 529 36,000  Level Gander Center
12:16PM 60.5667 -63.9833 229° Southwest 450 518 36,000  Level Gander Center
12:17PM 60.5000 -64.1833 236° Southwest 450 518 36,000  Level Gander Center
12:18PM 60.4167 -64.3833 230° Southwest 460 529 36,000  Level Gander Center
12:19PM 60.3500 -64.5833 236° Southwest 460 529 36,000  Level Gander Center
12:20PM 60.2500 -64.7667 222° Southwest 460 529 36,000  Level Gander Center
12:21PM 60.1833 -64.9667 236° Southwest 460 529 36,000  Level Gander Center
12:22PM 60.1000 -65.1500 228° Southwest 460 529 36,000  Level Gander Center
12:23PM 60.0000 -65.3500 225° Southwest 460 529 36,000  Level Gander Center
12:24PM 59.9000 -65.5000 217° Southwest 460 529 36,000  Level Gander Center
12:25PM 59.8167 -65.6500 222° Southwest 460 529 36,000  Level Gander Center
12:26PM 59.7333 -65.8333 228° Southwest 460 529 36,000  Level Gander Center
12:27PM 59.6167 -65.9833 213° Southwest 460 529 36,000  Level Gander Center
12:28PM 59.5333 -66.1500 225° Southwest 460 529 36,000  Level Gander Center
12:29PM 59.4333 -66.3167 220° Southwest 460 529 36,000  Level Gander Center
12:30PM 59.3333 -66.4667 217° Southwest 460 529 36,000  Level Gander Center
12:31PM 59.2333 -66.6500 223° Southwest 460 529 36,000  Level Gander Center
12:32PM 59.1333 -66.8000 218° Southwest 460 529 36,000  Level Gander Center
12:33PM 59.0333 -66.9833 223° Southwest 460 529 36,000  Level Gander Center
12:34PM 58.9500 -67.1333 223° Southwest 460 529 36,000  Level Gander Center
12:35PM 58.8333 -67.2667 211° Southwest 460 529 36,000  Level Gander Center
12:36PM 58.7500 -67.4500 229° Southwest 460 529 36,000  Level Gander Center
12:37PM 58.6500 -67.6000 218° Southwest 460 529 36,000  Level Gander Center
12:38PM 58.5500 -67.7333 215° Southwest 460 529 36,000  Level Gander Center
12:39PM 58.4500 -67.9167 224° Southwest 460 529 36,000  Level Gander Center
12:40PM 58.3500 -68.0500 215° Southwest 460 529 36,000  Level Gander Center
12:41PM 58.2333 -68.2167 217° Southwest 460 529 36,000  Level Gander Center
12:42PM 58.1500 -68.3667 224° Southwest 480 552 36,000  Level Gander Center
12:43PM 58.0167 -68.4833 205° Southwest 470 541 36,000  Level Montreal Center
12:44PM 57.9333 -68.6333 224° Southwest 460 529 36,000  Level Montreal Center
12:45PM 57.8167 -68.7833 214° Southwest 460 529 36,000  Level Montreal Center
12:46PM 57.7000 -68.9333 215° Southwest 450 518 36,000  Level Montreal Center
12:47PM 57.6167 -69.0833 224° Southwest 450 518 36,000  Level Montreal Center
12:48PM 57.5000 -69.1833 205° Southwest 450 518 36,000  Level Montreal Center
12:49PM 57.4000 -69.3333 219° Southwest 450 518 36,000  Level Montreal Center
12:50PM 57.3000 -69.4833 219° Southwest 450 518 36,000  Level Montreal Center
12:51PM 57.2000 -69.6167 216° Southwest 450 518 36,000  Level Montreal Center
12:52PM 57.1000 -69.7667 219° Southwest 450 518 36,000  Level Montreal Center
12:53PM 57.0000 -69.8667 209° Southwest 450 518 36,000  Level Montreal Center
12:54PM 56.8833 -70.0167 215° Southwest 450 518 36,000  Level Montreal Center
12:55PM 56.7833 -70.1500 216° Southwest 450 518 36,000  Level Montreal Center
12:56PM 56.6833 -70.2833 216° Southwest 450 518 36,000  Level Montreal Center
12:57PM 56.5833 -70.4000 213° Southwest 450 518 36,000  Level Montreal Center
12:58PM 56.4667 -70.5333 212° Southwest 450 518 36,000  Level Montreal Center
12:59PM 56.3833 -70.6667 222° Southwest 450 518 36,000  Level Montreal Center
01:00PM 56.2667 -70.8000 212° Southwest 450 518 36,000  Level Montreal Center
01:01PM 56.1500 -70.9167 209° Southwest 450 518 36,000  Level Montreal Center
01:02PM 56.0500 -71.0500 217° Southwest 450 518 36,000  Level Montreal Center
01:03PM 55.9333 -71.1833 213° Southwest 450 518 36,000  Level Montreal Center
01:04PM 55.8500 -71.3167 222° Southwest 450 518 36,000  Level Montreal Center
01:05PM 55.7500 -71.4167 209° Southwest 450 518 36,000  Level Montreal Center
01:06PM 55.6333 -71.5500 213° Southwest 450 518 36,000  Level Montreal Center
01:07PM 55.5333 -71.6833 217° Southwest 450 518 36,000  Level Montreal Center
01:08PM 55.4167 -71.7833 206° Southwest 450 518 36,000  Level Montreal Center
01:09PM 55.3333 -71.9000 219° Southwest 450 518 36,000  Level Montreal Center
01:10PM 55.2167 -72.0333 213° Southwest 450 518 36,000  Level Montreal Center
01:11PM 55.1167 -72.1667 217° Southwest 440 506 36,000  Level Montreal Center
01:12PM 55.0000 -72.3000 213° Southwest 440 506 36,000  Level Montreal Center
01:13PM 54.9000 -72.3833 206° Southwest 440 506 36,000  Level Montreal Center
01:14PM 54.7833 -72.5167 213° Southwest 440 506 36,000  Level Montreal Center
01:15PM 54.6833 -72.6333 214° Southwest 450 518 36,000  Level Montreal Center
01:16PM 54.6000 -72.7333 215° Southwest 440 506 36,000  Level Montreal Center
01:17PM 54.4833 -72.8667 214° Southwest 440 506 36,000  Level Montreal Center
01:18PM 54.3833 -72.9833 214° Southwest 440 506 36,000  Level Montreal Center
01:19PM 54.2833 -73.0833 210° Southwest 440 506 36,000 120 Level Montreal Center
01:20PM 54.1667 -73.2000 210° Southwest 440 506 36,300 480 Climbing Montreal Center
01:21PM 54.0667 -73.3167 214° Southwest 440 506 37,000 300 Climbing Montreal Center
01:22PM 53.9667 -73.4167 210° Southwest 450 518 37,000  Level Montreal Center
01:23PM 53.8500 -73.5333 211° Southwest 450 518 37,000  Level Montreal Center
01:24PM 53.7333 -73.6500 211° Southwest 450 518 37,000  Level Montreal Center
01:25PM 53.6333 -73.7500 211° Southwest 450 518 37,000  Level Montreal Center
01:26PM 53.5167 -73.8333 203° Southwest 440 506 37,000  Level Montreal Center
01:27PM 53.4000 -73.9500 211° Southwest 450 518 37,000  Level Montreal Center
01:28PM 53.3000 -74.0500 211° Southwest 450 518 37,000  Level Montreal Center
01:29PM 53.1833 -74.1333 203° Southwest 450 518 37,000  Level Montreal Center
01:30PM 53.0667 -74.2333 207° Southwest 450 518 37,000  Level Montreal Center
01:31PM 52.9500 -74.3167 203° Southwest 450 518 37,000  Level Montreal Center
01:32PM 52.8667 -74.4000 211° Southwest 450 518 37,000  Level Montreal Center
01:33PM 52.7333 -74.4833 201° Southwest 450 518 37,000  Level Montreal Center
01:34PM 52.6333 -74.6000 215° Southwest 450 518 37,000  Level Montreal Center
01:35PM 52.5167 -74.7000 208° Southwest 460 529 37,000  Level Montreal Center
01:36PM 52.3833 -74.7833 201° Southwest 450 518 37,000  Level Montreal Center
01:37PM 52.2667 -74.8667 204° Southwest 430 495 37,000  Level Montreal Center
01:38PM 52.1667 -74.9500 207° Southwest 460 529 37,000  Level Montreal Center
01:39PM 52.0333 -75.0667 208° Southwest 460 529 37,000  Level Montreal Center
01:40PM 51.9333 -75.1500 207° Southwest 460 529 37,000  Level Montreal Center
01:41PM 51.8167 -75.2333 204° Southwest 460 529 37,000  Level Montreal Center
01:42PM 51.7000 -75.3167 204° Southwest 450 518 37,000  Level Montreal Center
01:43PM 51.5833 -75.4000 204° Southwest 450 518 37,000  Level Montreal Center
01:44PM 51.4667 -75.5000 208° Southwest 450 518 37,000  Level Montreal Center
01:45PM 51.3667 -75.5833 207° Southwest 450 518 37,000  Level Montreal Center
01:46PM 51.2500 -75.6667 204° Southwest 450 518 37,000  Level Montreal Center
01:47PM 51.1333 -75.7500 204° Southwest 450 518 37,000  Level Montreal Center
01:48PM 51.0167 -75.8333 204° Southwest 450 518 37,000  Level Montreal Center
01:49PM 50.9000 -75.9167 204° Southwest 450 518 37,000  Level Montreal Center
01:50PM 50.7833 -76.0167 208° Southwest 450 518 37,000  Level Montreal Center
01:51PM 50.6833 -76.1000 208° Southwest 450 518 37,000  Level Montreal Center
01:52PM 50.5667 -76.1833 204° Southwest 460 529 37,000  Level Montreal Center
01:53PM 50.4500 -76.2500 200° South 460 529 37,000  Level Montreal Center
01:54PM 50.3333 -76.3333 205° Southwest 450 518 37,000  Level Montreal Center
01:55PM 50.2167 -76.4333 209° Southwest 450 518 37,000  Level Montreal Center
01:56PM 50.0833 -76.5167 202° Southwest 450 518 37,000  Level Montreal Center
01:57PM 49.9667 -76.6000 205° Southwest 450 518 37,000  Level Montreal Center
01:58PM 49.8667 -76.6667 203° Southwest 450 518 37,000  Level Montreal Center
01:59PM 49.7500 -76.7500 205° Southwest 450 518 37,000  Level Montreal Center
02:00PM 49.6333 -76.8167 200° South 460 529 37,000  Level Montreal Center
02:01PM 49.5167 -76.9167 209° Southwest 440 506 37,000  Level Montreal Center
02:02PM 49.4000 -77.0000 205° Southwest 470 541 37,100 300 Climbing Montreal Center
02:03PM 49.3000 -77.0667 204° Southwest 460 529 37,600 420 Climbing Montreal Center
02:04PM 49.1833 -77.1500 205° Southwest 440 506 38,000 180 Climbing Montreal Center
02:05PM 49.0667 -77.2167 201° Southwest 450 518 38,000  Level Montreal Center
02:06PM 48.9500 -77.3000 205° Southwest 450 518 38,000  Level Montreal Center
02:07PM 48.8333 -77.4000 209° Southwest 440 506 38,000  Level Montreal Center
02:08PM 48.7167 -77.4667 201° Southwest 440 506 38,000  Level Montreal Center
02:09PM 48.6000 -77.5500 205° Southwest 440 506 38,000  Level Montreal Center
02:10PM 48.5000 -77.6167 204° Southwest 440 506 38,000  Level Montreal Center
02:11PM 48.3667 -77.6833 198° South 440 506 38,000  Level Montreal Center
02:12PM 48.2667 -77.7667 209° Southwest 450 518 38,000  Level Montreal Center
02:13PM 48.1500 -77.8333 201° Southwest 450 518 38,000  Level Montreal Center
02:14PM 48.0333 -77.9000 201° Southwest 450 518 38,000  Level Montreal Center
02:15PM 47.9167 -77.9667 201° Southwest 450 518 38,000  Level Montreal Center
02:16PM 47.8000 -78.0500 206° Southwest 450 518 38,000  Level Montreal Center
02:17PM 47.6833 -78.1167 201° Southwest 450 518 38,000  Level Montreal Center
02:18PM 47.5667 -78.1833 201° Southwest 450 518 38,000  Level Montreal Center
02:19PM 47.4500 -78.2500 201° Southwest 450 518 38,000  Level Montreal Center
02:20PM 47.3333 -78.3167 201° Southwest 450 518 38,000  Level Montreal Center
02:21PM 47.2167 -78.3833 201° Southwest 450 518 38,000  Level Montreal Center
02:22PM 47.0833 -78.4333 194° South 450 518 38,000  Level Montreal Center
02:23PM 46.9667 -78.5000 201° Southwest 450 518 38,000  Level Montreal Center
02:25PM 46.8500 -78.5667 201° Southwest 450 518 38,000  Level Toronto Center
02:26PM 46.7167 -78.6333 199° South 450 518 38,000  Level Toronto Center
02:27PM 46.6167 -78.6833 199° South 450 518 38,000  Level Toronto Center
02:28PM 46.5000 -78.7667 206° Southwest 450 518 38,000  Level Toronto Center
02:29PM 46.3667 -78.8167 195° South 450 518 38,000  Level Toronto Center
02:30PM 46.2667 -78.8833 205° Southwest 450 518 38,000  Level Toronto Center
02:31PM 46.1333 -78.9500 199° South 450 518 38,000  Level Toronto Center
02:32PM 46.0167 -79.0000 197° South 450 518 38,000  Level Toronto Center
02:33PM 45.9000 -79.0833 206° Southwest 450 518 38,000  Level Toronto Center
02:34PM 45.7833 -79.1333 197° South 450 518 38,000  Level Toronto Center
02:35PM 45.6667 -79.2000 202° Southwest 450 518 38,000  Level Toronto Center
02:36PM 45.5500 -79.2833 207° Southwest 450 518 38,000  Level Toronto Center
02:37PM 45.4333 -79.3167 191° South 450 518 38,000  Level Toronto Center
02:38PM 45.3167 -79.4000 207° Southwest 450 518 38,000  Level Toronto Center
02:39PM 45.2000 -79.4500 197° South 450 518 38,000  Level Toronto Center
02:40PM 45.0833 -79.5167 202° Southwest 450 518 38,000  Level Toronto Center
02:41PM 44.9667 -79.5833 202° Southwest 450 518 38,000  Level Toronto Center
02:42PM 44.8500 -79.6333 197° South 450 518 38,000  Level Toronto Center
02:43PM 44.7333 -79.7000 202° Southwest 450 518 38,000  Level Toronto Center
02:44PM 44.6167 -79.7500 197° South 450 518 38,000  Level Toronto Center
02:45PM 44.5000 -79.8167 202° Southwest 440 506 38,000  Level Toronto Center
02:46PM 44.4000 -79.9333 220° Southwest 430 495 38,000  Level Toronto Center
02:52PM 43.7740 -80.5130 220° Southwest 443 510 38,000  Level FlightAware ADS-B (CYHM)
02:52PM 43.7224 -80.5583 212° Southwest 445 512 38,000  Level FlightAware ADS-B (CYHM)
02:54PM 43.5833 -80.6667 212° Southwest 440 506 38,000  Level Toronto Center
02:55PM 43.4833 -80.7667 216° Southwest 440 506 38,000  Level Toronto Center
02:56PM 43.3500 -80.8500 204° Southwest 440 506 38,000  Level Toronto Center
02:57PM 43.2500 -80.9333 211° Southwest 440 506 38,000  Level Toronto Center
02:58PM 43.1500 -81.0333 216° Southwest 440 506 38,000  Level Toronto Center
02:59PM 43.0500 -81.1167 211° Southwest 440 506 38,000  Level Toronto Center
03:00PM 42.9333 -81.1833 203° Southwest 450 518 38,000  Level Toronto Center
03:01PM 42.8167 -81.2500 203° Southwest 450 518 38,000  Level Toronto Center
03:02PM 42.7000 -81.3333 208° Southwest 450 518 38,000  Level Toronto Center
03:03PM 42.6000 -81.4000 206° Southwest 450 518 38,000  Level Toronto Center
03:04PM 42.4833 -81.4667 203° Southwest 450 518 38,000  Level Toronto Center
03:05PM 42.3667 -81.5333 203° Southwest 440 506 38,000  Level Toronto Center
03:06PM 42.2667 -81.6167 212° Southwest 450 518 38,000  Level Toronto Center
03:07PM 42.1500 -81.6833 203° Southwest 450 518 38,000  Level Toronto Center
03:08PM 42.0333 -81.7500 203° Southwest 450 518 38,000  Level Toronto Center
03:08PM 41.9861 -81.7900 212° Southwest 449 517 38,000  Level Cleveland Center
03:09PM 41.8725 -81.8578 204° Southwest 445 512 38,000  Level Cleveland Center
03:10PM 41.7575 -81.9236 203° Southwest 445 512 38,000  Level Cleveland Center
03:11PM 41.6444 -81.9925 204° Southwest 445 512 38,000  Level Cleveland Center
03:12PM 41.5314 -82.0586 204° Southwest 444 511 38,000  Level Cleveland Center
03:13PM 41.3989 -82.1367 204° Southwest 446 513 38,000  Level Cleveland Center
03:14PM 41.2797 -82.1875 198° South 452 520 38,000  Level Cleveland Center
03:15PM 41.1569 -82.2333 196° South 456 525 38,000  Level Cleveland Center
03:16PM 41.0333 -82.2778 195° South 458 527 38,000  Level Cleveland Center
03:17PM 40.9100 -82.3208 195° South 457 526 38,000  Level Cleveland Center
03:18PM 40.8486 -82.3431 195° South 455 524 38,000  Level Indianapolis Center
03:19PM 40.7039 -82.3944 195° South 457 526 38,000  Level Indianapolis Center
03:20PM 40.6003 -82.4331 196° South 459 528 38,000  Level Indianapolis Center
03:21PM 40.4622 -82.4844 196° South 459 528 38,000  Level Indianapolis Center
03:23PM 40.2614 -82.5511 194° South 470 541 38,000  Level Indianapolis Center
03:24PM 40.1422 -82.5861 193° South 469 540 38,000  Level Indianapolis Center
03:25PM 40.0108 -82.5972 184° South 471 542 38,000  Level Indianapolis Center
03:26PM 39.8781 -82.6067 183° South 474 545 38,000  Level Indianapolis Center
03:27PM 39.7472 -82.6158 183° South 470 541 38,000  Level Indianapolis Center
03:28PM 39.5872 -82.6272 183° South 476 548 38,000  Level Indianapolis Center
03:29PM 39.4550 -82.6356 183° South 475 547 38,000  Level Indianapolis Center
03:30PM 39.3225 -82.6444 183° South 475 547 38,000  Level Indianapolis Center
03:31PM 39.1928 -82.6517 182° South 468 539 38,000  Level Indianapolis Center
03:32PM 39.0497 -82.6556 181° South 466 536 38,000  Level Indianapolis Center
03:33PM 38.9167 -82.6283 171° South 483 556 38,000  Level Indianapolis Center
03:39PM 38.1731 -82.7396 171° South 38,000  Level FlightAware ADS-B
03:39PM 38.1338 -82.7602 202° Southwest 448 516 38,000  Level FlightAware ADS-B
03:40PM 38.0745 -82.7914 202° Southwest 449 517 38,000  Level FlightAware ADS-B
03:40PM 38.0073 -82.8266 202° Southwest 449 517 38,000  Level FlightAware ADS-B
03:43PM 37.7286 -82.9722 202° Southwest 451 519 38,000  Level FlightAware ADS-B
03:43PM 37.6683 -83.0034 202° Southwest 450 518 38,000  Level FlightAware ADS-B
03:44PM 37.6008 -83.0383 202° Southwest 449 517 38,000  Level FlightAware ADS-B
03:44PM 37.5428 -83.0684 202° Southwest 447 514 38,000  Level FlightAware ADS-B
03:45PM 37.4841 -83.0987 202° Southwest 447 514 38,000  Level FlightAware ADS-B
03:45PM 37.4278 -83.1277 202° Southwest 446 513 38,000  Level FlightAware ADS-B
03:46PM 37.3584 -83.1634 202° Southwest 445 512 38,000  Level FlightAware ADS-B
03:46PM 37.2961 -83.1954 202° Southwest 446 513 38,000  Level FlightAware ADS-B
03:47PM 37.2337 -83.2274 202° Southwest 447 514 38,000  Level FlightAware ADS-B
03:47PM 37.1736 -83.2581 202° Southwest 448 516 38,000  Level FlightAware ADS-B
03:48PM 37.1150 -83.2880 202° Southwest 447 514 38,000  Level FlightAware ADS-B
03:49PM 37.0506 -83.3208 202° Southwest 446 513 38,000  Level FlightAware ADS-B
03:49PM 36.9931 -83.3501 202° Southwest 446 513 38,000  Level FlightAware ADS-B
03:50PM 36.9343 -83.3800 202° Southwest 448 516 38,000  Level FlightAware ADS-B
03:50PM 36.8761 -83.4095 202° Southwest 448 516 38,000  Level FlightAware ADS-B
03:51PM 36.8174 -83.4392 202° Southwest 450 518 38,000  Level FlightAware ADS-B
03:51PM 36.7566 -83.4698 202° Southwest 452 520 38,000  Level FlightAware ADS-B
03:52PM 36.6987 -83.4990 202° Southwest 452 520 38,000  Level FlightAware ADS-B
03:52PM 36.6329 -83.5320 202° Southwest 452 520 38,000  Level FlightAware ADS-B
03:53PM 36.5660 -83.5658 202° Southwest 452 520 38,000  Level FlightAware ADS-B
03:53PM 36.5020 -83.5979 202° Southwest 450 518 38,000  Level FlightAware ADS-B
03:54PM 36.4428 -83.6276 202° Southwest 450 518 38,000  Level FlightAware ADS-B
03:54PM 36.3762 -83.6608 202° Southwest 449 517 38,000  Level FlightAware ADS-B
03:55PM 36.3176 -83.6902 202° Southwest 449 517 38,000  Level FlightAware ADS-B
03:55PM 36.2492 -83.7242 202° Southwest 450 518 38,000  Level FlightAware ADS-B
03:56PM 36.1677 -83.7647 202° Southwest 449 517 38,000  Level FlightAware ADS-B
03:57PM 36.1082 -83.7942 202° Southwest 447 514 38,000  Level FlightAware ADS-B
03:57PM 36.0391 -83.8284 202° Southwest 447 514 38,000  Level FlightAware ADS-B
03:58PM 35.9780 -83.8587 202° Southwest 448 516 38,000  Level FlightAware ADS-B
03:58PM 35.9183 -83.8863 201° Southwest 450 518 38,000 60 Level FlightAware ADS-B
03:59PM 35.8640 -83.9036 194° South 461 531 38,100 300 Climbing FlightAware ADS-B
03:59PM 35.8010 -83.9186 191° South 461 531 38,300 420 Climbing FlightAware ADS-B
04:00PM 35.7305 -83.9368 192° South 465 535 38,600 540 Climbing FlightAware ADS-B
04:00PM 35.6668 -83.9527 191° South 468 539 38,900 360 Climbing FlightAware ADS-B
04:01PM 35.6016 -83.9686 191° South 474 545 39,000 60 Climbing FlightAware ADS-B
04:01PM 35.5234 -83.9874 191° South 473 544 39,000  Level FlightAware ADS-B
04:02PM 35.4604 -84.0026 191° South 469 540 39,000  Level FlightAware ADS-B
04:02PM 35.3943 -84.0185 191° South 468 539 39,000  Level FlightAware ADS-B
04:03PM 35.3305 -84.0339 191° South 467 537 39,000  Level FlightAware ADS-B
04:03PM 35.2646 -84.0499 191° South 467 537 39,000  Level FlightAware ADS-B
04:04PM 35.2029 -84.0646 191° South 467 537 39,000  Level FlightAware ADS-B
04:05PM 35.1158 -84.0854 191° South 467 537 39,000  Level FlightAware ADS-B
04:05PM 35.0525 -84.1006 191° South 467 537 39,000  Level FlightAware ADS-B
04:06PM 34.9888 -84.1158 191° South 467 537 39,000  Level FlightAware ADS-B
04:07PM 34.8337 -84.1528 191° South 469 540 39,000  Level FlightAware ADS-B
04:07PM 34.7697 -84.1680 191° South 468 539 39,000  Level FlightAware ADS-B
04:08PM 34.7040 -84.1836 191° South 469 540 39,000  Level FlightAware ADS-B
04:09PM 34.5613 -84.2174 191° South 469 540 39,000  Level FlightAware ADS-B
04:10PM 34.4929 -84.2336 191° South 471 542 39,000  Level FlightAware ADS-B
04:10PM 34.4273 -84.2490 191° South 471 542 39,000  Level FlightAware ADS-B
04:11PM 34.3625 -84.2642 191° South 471 542 39,000  Level FlightAware ADS-B
04:11PM 34.2945 -84.2802 191° South 472 543 39,000  Level FlightAware ADS-B
04:12PM 34.2075 -84.3006 191° South 473 544 39,000  Level FlightAware ADS-B
04:14PM 33.8804 -84.3769 191° South 478 550 39,000  Level FlightAware ADS-B
04:15PM 33.7867 -84.3986 191° South 479 551 39,000  Level FlightAware ADS-B
04:16PM 33.7199 -84.4141 191° South 480 552 39,000  Level FlightAware ADS-B
04:16PM 33.6825 -84.4225 191° South 483 556 39,000  Level FlightAware ADS-B
04:16PM 33.6538 -84.4273 188° South 491 565 39,000  Level FlightAware ADS-B
04:16PM 33.5949 -84.4324 184° South 504 580 39,000  Level FlightAware ADS-B
04:17PM 33.5430 -84.4324 180° South 513 590 39,000  Level FlightAware ADS-B
04:17PM 33.4579 -84.4311 179° South 513 590 39,000  Level FlightAware ADS-B
04:18PM 33.3839 -84.4299 179° South 514 592 39,000  Level FlightAware ADS-B
04:19PM 33.2380 -84.4271 179° South 514 592 39,000  Level FlightAware ADS-B
04:20PM 33.1089 -84.4281 179° South 513 590 39,000  Level Atlanta Center
04:21PM 32.9650 -84.4250 179° South 513 590 39,000  Level Atlanta Center
04:22PM 32.8231 -84.4219 179° South 513 590 39,000  Level Atlanta Center
04:23PM 32.6811 -84.4214 180° South 513 590 39,000  Level Atlanta Center
04:24PM 32.5392 -84.4158 178° South 513 590 39,000  Level Atlanta Center
04:25PM 32.4078 -84.4128 179° South 513 590 39,000  Level Atlanta Center
04:26PM 32.2367 -84.4097 179° South 513 590 39,000  Level Atlanta Center
04:27PM 32.0925 -84.4092 180° South 513 590 39,000  Level Atlanta Center
04:28PM 31.9506 -84.4036 178° South 513 590 39,000  Level Atlanta Center
04:34PM 31.2282 -84.3870 178° South 520 598 39,000  Level FlightAware ADS-B (KTLH)
04:34PM 31.0515 -84.3836 179° South 520 598 39,000  Level FlightAware ADS-B (KTLH)
04:35PM 30.9571 -84.3818 179° South 522 601 39,000  Level FlightAware ADS-B (KTLH)
04:36PM 30.8546 -84.3798 179° South 522 601 39,000  Level FlightAware ADS-B (KTLH)
04:36PM 30.7691 -84.3780 179° South 524 603 39,000  Level FlightAware ADS-B (KTLH)
04:36PM 30.7323 -84.3760 177° South 527 606 39,000  Level FlightAware ADS-B (KTLH)
04:37PM 30.6586 -84.3661 173° South 537 618 39,000  Level FlightAware ADS-B (KTLH)
04:37PM 30.5853 -84.3489 169° South 545 627 39,000  Level FlightAware ADS-B (KTLH)
04:38PM 30.5114 -84.3238 164° South 553 636 39,000  Level FlightAware ADS-B (KTLH)
04:38PM 30.4472 -84.2951 159° South 560 644 39,000  Level FlightAware ADS-B (KTLH)
04:39PM 30.3981 -84.2684 155° Southeast 564 649 39,000  Level FlightAware ADS-B (KTLH)
04:39PM 30.3602 -84.2448 152° Southeast 566 651 39,000  Level FlightAware ADS-B (KTLH)
04:40PM 30.2385 -84.1655 151° Southeast 566 651 39,000  Level FlightAware ADS-B (KTLH)
04:40PM 30.1680 -84.1197 151° Southeast 564 649 39,000  Level FlightAware ADS-B (KTLH)
04:41PM 30.0973 -84.0737 151° Southeast 563 648 39,000  Level FlightAware ADS-B (KTLH)
04:41PM 30.0299 -84.0299 151° Southeast 564 649 39,000  Level FlightAware ADS-B (KTLH)
04:42PM 29.9819 -83.9988 151° Southeast 564 649 39,000  Level FlightAware ADS-B (KTLH)
04:43PM 29.8849 -83.9359 151° Southeast 565 650 39,000  Level FlightAware ADS-B (KTLH)
04:43PM 29.8065 -83.8852 151° Southeast 566 651 39,000  Level FlightAware ADS-B (KTLH)
04:45PM 29.6081 -83.7622 151° Southeast 567 652 39,000  Level Jacksonville Center
04:46PM 29.4728 -83.6703 149° Southeast 562 647 39,000  Level Jacksonville Center
04:47PM 29.3378 -83.5858 151° Southeast 562 647 39,000  Level Jacksonville Center
04:48PM 29.2003 -83.4992 151° Southeast 562 647 39,000  Level Jacksonville Center
04:49PM 29.0650 -83.4128 151° Southeast 562 647 39,000  Level Jacksonville Center
04:50PM 28.9297 -83.3244 150° Southeast 562 647 39,000  Level Jacksonville Center
04:51PM 28.7944 -83.2408 152° Southeast 562 647 39,000  Level Jacksonville Center
04:52PM 28.6567 -83.1528 151° Southeast 567 652 39,000  Level Jacksonville Center
04:53PM 28.5233 -83.0697 151° Southeast 562 647 39,000  Level Jacksonville Center
04:54PM 28.3772 -82.9775 151° Southeast 557 641 39,000  Level Jacksonville Center
04:56PM 28.1064 -82.8086 151° Southeast 549 632 39,000  Level Miami Center
04:57PM 27.9581 -82.7139 151° Southeast 556 640 39,000  Level Miami Center
04:58PM 27.8236 -82.6342 152° Southeast 555 639 39,000  Level Miami Center
04:59PM 27.6928 -82.6158 173° South 514 592 39,000  Level Miami Center
05:00PM 27.5492 -82.6111 178° South 519 597 39,000  Level Miami Center
05:01PM 27.3867 -82.6075 179° South 528 608 39,000  Level Miami Center
05:02PM 27.2406 -82.6050 179° South 528 608 39,000  Level Miami Center
05:03PM 27.0967 -82.6025 179° South 533 613 39,000  Level Miami Center
05:04PM 26.9486 -82.5975 178° South 533 613 39,000  Level Miami Center
05:05PM 26.8028 -82.5950 179° South 533 613 39,000  Level Miami Center
05:06PM 26.6547 -82.5900 178° South 533 613 39,000  Level Miami Center
05:07PM 26.5067 -82.5850 178° South 533 613 39,000  Level Miami Center
05:08PM 26.3586 -82.5847 180° South 533 613 39,000  Level Miami Center
05:09PM 26.2128 -82.5778 178° South 533 613 39,000  Level Miami Center
05:10PM 26.0647 -82.5753 179° South 533 613 39,000  Level Miami Center
05:11PM 25.9186 -82.5706 178° South 533 613 39,000  Level Miami Center
05:12PM 25.7894 -82.5669 179° South 533 613 39,000  Level Miami Center
05:13PM 25.6392 -82.5644 179° South 533 613 39,000  Level Miami Center
05:14PM 25.4956 -82.5597 178° South 533 613 39,000  Level Miami Center
05:15PM 25.3536 -82.5556 178° South 527 606 39,000 -1,200 Level Miami Center
05:16PM 25.2075 -82.5533 179° South 522 601 36,700 -2,100 Descending Miami Center
05:17PM 25.0658 -82.5489 178° South 522 601 34,800 -1,500 Descending Miami Center
05:18PM 24.9219 -82.5469 179° South 516 594 33,700 -1,200 Descending Miami Center
05:19PM 24.7844 -82.5406 178° South 509 586 32,500 -1,440 Descending Miami Center
05:20PM 24.6467 -82.5386 179° South 504 580 30,900 -1,740 Descending Miami Center
05:21PM 24.5172 -82.5350 179° South 489 563 29,100 -1,740 Descending Miami Center
05:22PM 24.3922 -82.5317 179° South 471 542 27,500 -1,680 Descending Miami Center
05:23PM 24.2692 -82.5283 179° South 457 526 25,800 -1,740 Descending Miami Center
05:24PM 24.1503 -82.5275 180° South 444 511 24,100 -1,680 Descending Miami Center
05:25PM 24.0294 -82.5219 178° South 436 502 22,500 -1,620 Descending Miami Center
05:27PM 23.8254 -82.4917 173° South  Level FlightAware Approximate
05:34PM 23.0166 -82.4000 180° South  Level FlightAware Approximate
05:35PM 22.9891 -82.4091 180° South  Level Estimated
05:36PM 22.9891 -82.4091 180° South  Level Estimated
05:37PM 22.9891 -82.4091 180° South  Level Estimated
05:38PM 22.9891 -82.4091 180° South  Level Estimated
05:39PM 22.9891 -82.4091 180° South  Level Estimated
05:40PM 22.9891 -82.4091 180° South  Level Estimated
05:41PM 22.9891 -82.4091 180° South  Level Estimated
05:42PM 22.9891 -82.4091 180° South  Level Estimated
05:43PM 22.9891 -82.4091 180° South  Level Estimated
05:44PM 22.9891 -82.4091 180° South  Level Estimated
05:45PM 22.9891 -82.4091 180° South  Level Estimated
05:46PM 22.9891 -82.4091 180° South  Level Estimated
05:47PM 22.9891 -82.4091 180° South  Level Estimated
05:48PM 22.9891 -82.4091 180° South  Level Estimated
05:49PM 22.9891 -82.4091 180° South  Level Estimated
05:50PM 22.9891 -82.4091 180° South  Level Estimated
05:51PM 22.9891 -82.4091 180° South  Level Estimated
05:52PM 22.9891 -82.4091 180° South  Level Estimated
05:53PM 22.9891 -82.4091 180° South  Level Estimated
05:54PM 22.9891 -82.4091 180° South  Level Estimated
05:55PM 22.9891 -82.4091 180° South  Level Estimated
05:56PM 22.9891 -82.4091 180° South  Level Estimated
05:57PM 22.9891 -82.4091 180° South  Level Estimated